Time;durP1;ratioP1;P1;durP2;ratioP2;P2;SDS_P1;SDS_P2;PMS_P1;PMS_P2;Temp;Humidity;BMP_temperature;BMP_pressure;BME280_temperature;BME280_humidity;BME280_pressure;Samples;Min_cycle;Max_cycle;Signal;HPM_P1;HPM_P2
2021/07/07 00:00:44;;;;;;;;;;;;;;;19.37;90.91;98757.28;5026298;28;20008;-67
2021/07/07 00:03:09;;;;;;;;;;;;;;;19.13;92.40;98764.25;5026264;28;19939;-67
2021/07/07 00:05:35;;;;;;;;;;;;;;;19.07;93.13;98757.69;5025014;28;19952;-67
2021/07/07 00:08:00;;;;;;;;;;;;;;;18.95;94.70;98761.16;5009100;28;19941;-67
2021/07/07 00:10:28;;;;;;;;;;;;;;;19.04;93.45;98759.69;5024503;28;19924;-67
2021/07/07 00:12:53;;;;;;;;;;;;;;;18.87;95.39;98760.88;5024373;28;19971;-67
2021/07/07 00:15:20;;;;;;;;;;;;;;;18.49;97.93;98769.53;5025037;28;19928;-67
2021/07/07 00:17:46;;;;;;;;;;;;;;;17.97;100.00;98769.50;5008828;28;20516;-66
2021/07/07 00:20:12;;;;;;;;;;;;;;;18.02;100.00;98765.72;5026208;28;19933;-67
2021/07/07 00:22:37;;;;;;;;;;;;;;;18.14;100.00;98767.53;5008013;28;19960;-67
2021/07/07 00:25:03;;;;;;;;;;;;;;;17.52;100.00;98768.09;5026215;28;20406;-67
2021/07/07 00:27:29;;;;;;;;;;;;;;;17.93;100.00;98767.19;5025215;28;19920;-67
2021/07/07 00:29:55;;;;;;;;;;;;;;;17.81;100.00;98765.34;5026748;28;20016;-67
2021/07/07 00:32:21;;;;;;;;;;;;;;;17.83;100.00;98766.94;5009959;28;20401;-67
2021/07/07 00:34:46;;;;;;;;;;;;;;;18.60;100.00;98762.63;5007856;28;19925;-67
2021/07/07 00:37:12;;;;;;;;;;;;;;;18.39;100.00;98770.16;5008270;28;19924;-67
2021/07/07 00:39:37;;;;;;;;;;;;;;;17.91;100.00;98764.69;5025747;28;19921;-67
2021/07/07 00:42:03;;;;;;;;;;;;;;;18.98;100.00;98758.34;5008784;28;20297;-67
2021/07/07 00:44:28;;;;;;;;;;;;;;;19.14;96.13;98761.53;5025302;28;20702;-67
2021/07/07 00:46:54;;;;;;;;;;;;;;;18.98;96.21;98761.78;5008381;28;20385;-67
2021/07/07 00:49:19;;;;;;;;;;;;;;;18.99;96.12;98755.59;5008648;28;19947;-67
2021/07/07 00:51:45;;;;;;;;;;;;;;;18.76;99.95;98756.38;5024983;28;19995;-67
2021/07/07 00:54:10;;;;;;;;;;;;;;;19.19;99.53;98756.81;5025916;28;19999;-67
2021/07/07 00:56:36;;;;;;;;;;;;;;;19.30;95.83;98760.44;5007267;28;19917;-67
2021/07/07 00:59:01;;;;;;;;;;;;;;;19.28;92.23;98757.09;5007976;28;19921;-67
2021/07/07 01:01:27;;;;;;;;;;;;;;;19.40;90.95;98751.00;5024914;28;20516;-67
2021/07/07 01:03:52;;;;;;;;;;;;;;;19.55;87.49;98757.72;5007895;28;21006;-67
2021/07/07 01:06:19;;;;;;;;;;;;;;;18.74;94.97;98756.47;5025588;28;20383;-67
2021/07/07 01:08:44;;;;;;;;;;;;;;;18.79;93.86;98750.97;5025073;28;19925;-67
2021/07/07 01:11:09;;;;;;;;;;;;;;;18.26;100.00;98748.47;5024758;28;19923;-67
2021/07/07 01:13:35;;;;;;;;;;;;;;;17.66;100.00;98755.00;5026217;28;20488;-67
2021/07/07 01:16:00;;;;;;;;;;;;;;;17.92;100.00;98755.94;5024122;28;19924;-67
2021/07/07 01:18:26;;;;;;;;;;;;;;;18.01;100.00;98758.88;5008173;28;19914;-67
2021/07/07 01:20:51;;;;;;;;;;;;;;;17.97;100.00;98753.88;5024427;28;19921;-67
2021/07/07 01:23:16;;;;;;;;;;;;;;;17.52;100.00;98753.31;5025055;28;19920;-67
2021/07/07 01:25:42;;;;;;;;;;;;;;;17.96;100.00;98735.72;5024488;28;20393;-67
2021/07/07 01:28:07;;;;;;;;;;;;;;;17.89;100.00;98735.28;5007761;28;20295;-67
2021/07/07 01:30:33;;;;;;;;;;;;;;;17.74;100.00;98742.34;4991290;28;20059;-67
2021/07/07 01:32:58;;;;;;;;;;;;;;;17.74;100.00;98741.47;5008135;28;20004;-67
2021/07/07 01:35:24;;;;;;;;;;;;;;;17.63;100.00;98743.94;5006989;28;19955;-67
2021/07/07 01:37:50;;;;;;;;;;;;;;;17.68;100.00;98753.16;5007635;28;19917;-67
2021/07/07 01:40:18;;;;;;;;;;;;;;;17.48;100.00;98758.81;5023778;28;19922;-67
2021/07/07 01:42:43;;;;;;;;;;;;;;;17.05;100.00;98754.53;5025503;28;19932;-67
2021/07/07 01:45:09;;;;;;;;;;;;;;;17.52;100.00;98749.88;5024268;28;19917;-67
2021/07/07 01:47:35;;;;;;;;;;;;;;;17.54;100.00;98756.66;5025192;28;20302;-67
2021/07/07 01:50:00;;;;;;;;;;;;;;;17.14;100.00;98758.34;5023252;28;19928;-67
2021/07/07 01:52:26;;;;;;;;;;;;;;;17.36;100.00;98763.03;5024632;28;19921;-67
2021/07/07 01:54:51;;;;;;;;;;;;;;;17.37;100.00;98756.88;5007220;28;19929;-67
2021/07/07 01:57:17;;;;;;;;;;;;;;;17.60;100.00;98750.19;5007463;28;19917;-67
2021/07/07 01:59:42;;;;;;;;;;;;;;;18.05;100.00;98749.91;5006808;28;19932;-67
2021/07/07 02:02:08;;;;;;;;;;;;;;;17.45;100.00;98746.81;5024110;28;19917;-67
2021/07/07 02:04:33;;;;;;;;;;;;;;;17.48;100.00;98741.41;5006616;28;19921;-67
2021/07/07 02:06:59;;;;;;;;;;;;;;;17.64;100.00;98749.06;5024410;28;19918;-67
2021/07/07 02:09:24;;;;;;;;;;;;;;;17.56;100.00;98746.97;5005471;28;20816;-67
2021/07/07 02:11:50;;;;;;;;;;;;;;;17.32;100.00;98745.94;5025108;28;19939;-67
2021/07/07 02:14:16;;;;;;;;;;;;;;;17.63;100.00;98756.97;5023734;28;19943;-67
2021/07/07 02:16:41;;;;;;;;;;;;;;;17.98;100.00;98754.69;5007183;28;19920;-67
2021/07/07 02:19:07;;;;;;;;;;;;;;;17.50;100.00;98755.16;5006301;28;19960;-67
2021/07/07 02:21:32;;;;;;;;;;;;;;;17.39;100.00;98751.59;5024380;28;19967;-67
2021/07/07 02:23:58;;;;;;;;;;;;;;;17.49;100.00;98748.31;5023696;28;19971;-67
2021/07/07 02:26:23;;;;;;;;;;;;;;;17.23;100.00;98749.13;5024390;28;19924;-67
2021/07/07 02:28:48;;;;;;;;;;;;;;;17.43;100.00;98753.06;5006294;28;19921;-67
2021/07/07 02:31:14;;;;;;;;;;;;;;;17.43;100.00;98753.91;5006231;28;19921;-67
2021/07/07 02:33:39;;;;;;;;;;;;;;;17.52;100.00;98753.31;5023538;28;19952;-67
2021/07/07 02:36:05;;;;;;;;;;;;;;;16.97;100.00;98746.41;5024505;28;19921;-67
2021/07/07 02:38:31;;;;;;;;;;;;;;;17.12;100.00;98755.81;5006505;28;19918;-67
2021/07/07 02:40:57;;;;;;;;;;;;;;;17.24;100.00;98746.44;5007001;28;19974;-67
2021/07/07 02:43:22;;;;;;;;;;;;;;;17.28;100.00;98754.88;5006175;28;20051;-67
2021/07/07 02:45:48;;;;;;;;;;;;;;;17.01;100.00;98747.03;5023637;28;20410;-67
2021/07/07 02:48:14;;;;;;;;;;;;;;;17.29;100.00;98756.56;5023715;28;19928;-67
2021/07/07 02:50:39;;;;;;;;;;;;;;;17.00;100.00;98755.78;5006722;28;20401;-67
2021/07/07 02:53:06;;;;;;;;;;;;;;;17.25;100.00;98755.06;5005654;28;19968;-67
2021/07/07 02:55:32;;;;;;;;;;;;;;;17.17;100.00;98768.53;5006486;28;19921;-67
2021/07/07 03:00:42;;;;;;;;;;;;;;;16.82;100.00;98770.75;5021453;28;20492;-66
2021/07/07 03:03:12;;;;;;;;;;;;;;;16.59;100.00;98775.53;5005713;28;19917;-68
2021/07/07 03:05:41;;;;;;;;;;;;;;;16.94;100.00;98775.19;5006489;28;19958;-68
2021/07/07 03:08:07;;;;;;;;;;;;;;;16.82;100.00;98774.19;5022589;28;20375;-68
2021/07/07 03:10:33;;;;;;;;;;;;;;;16.77;100.00;98770.16;5024287;28;19925;-69
2021/07/07 03:12:58;;;;;;;;;;;;;;;16.75;100.00;98772.03;5022724;28;20449;-68
2021/07/07 03:15:25;;;;;;;;;;;;;;;17.00;100.00;98772.22;5005899;28;19932;-67
2021/07/07 03:17:51;;;;;;;;;;;;;;;16.58;100.00;98771.28;5005039;28;19931;-68
2021/07/07 03:20:17;;;;;;;;;;;;;;;16.98;100.00;98768.88;5005974;28;19921;-68
2021/07/07 03:22:42;;;;;;;;;;;;;;;16.65;100.00;98779.53;5023027;28;19921;-68
2021/07/07 03:25:08;;;;;;;;;;;;;;;16.86;100.00;98770.47;5024276;28;19932;-68
2021/07/07 03:27:34;;;;;;;;;;;;;;;17.02;100.00;98769.53;5005036;28;20448;-68
2021/07/07 03:29:59;;;;;;;;;;;;;;;16.99;100.00;98773.16;5006074;28;19920;-66
2021/07/07 03:32:25;;;;;;;;;;;;;;;16.95;100.00;98769.06;5005211;28;19921;-68
2021/07/07 03:34:50;;;;;;;;;;;;;;;16.82;100.00;98768.97;5027544;28;19921;-68
2021/07/07 03:37:15;;;;;;;;;;;;;;;16.73;100.00;98783.34;5008226;28;20478;-68
2021/07/07 03:39:41;;;;;;;;;;;;;;;16.62;100.00;98783.16;5009151;28;19921;-68
2021/07/07 03:42:06;;;;;;;;;;;;;;;16.68;100.00;98780.19;5027627;28;19960;-68
2021/07/07 03:44:33;;;;;;;;;;;;;;;16.93;100.00;98776.13;5027786;28;19964;-68
2021/07/07 03:46:58;;;;;;;;;;;;;;;16.90;100.00;98768.50;5027031;28;20968;-68
2021/07/07 03:49:24;;;;;;;;;;;;;;;16.65;100.00;98782.13;5008988;28;19932;-68
2021/07/07 03:51:49;;;;;;;;;;;;;;;16.82;100.00;98781.16;5027415;28;20403;-66
2021/07/07 03:54:14;;;;;;;;;;;;;;;16.72;100.00;98788.66;5008559;28;19939;-68
2021/07/07 03:56:40;;;;;;;;;;;;;;;16.79;100.00;98789.13;5026493;28;19917;-68
2021/07/07 03:59:05;;;;;;;;;;;;;;;16.85;100.00;98786.16;5026928;28;20361;-67
2021/07/07 04:01:31;;;;;;;;;;;;;;;16.87;100.00;98792.09;5008909;28;19917;-68
2021/07/07 04:03:56;;;;;;;;;;;;;;;16.81;100.00;98792.47;5027112;28;20009;-68
2021/07/07 04:06:22;;;;;;;;;;;;;;;16.84;100.00;98797.50;4992292;28;20406;-68
2021/07/07 04:08:47;;;;;;;;;;;;;;;16.92;100.00;98795.25;5008461;28;19969;-68
2021/07/07 04:11:13;;;;;;;;;;;;;;;16.83;100.00;98801.00;5026510;28;19925;-68
2021/07/07 04:13:38;;;;;;;;;;;;;;;16.69;100.00;98800.06;5026807;28;19920;-68
2021/07/07 04:16:03;;;;;;;;;;;;;;;17.21;100.00;98800.44;5008973;28;19924;-68
2021/07/07 04:18:29;;;;;;;;;;;;;;;16.98;100.00;98794.06;5026453;28;19960;-68
2021/07/07 04:20:54;;;;;;;;;;;;;;;17.29;100.00;98793.00;5025630;28;20000;-68
2021/07/07 04:23:20;;;;;;;;;;;;;;;17.27;100.00;98794.84;5026366;28;20028;-68
2021/07/07 04:25:45;;;;;;;;;;;;;;;16.95;100.00;98800.28;5008239;28;19921;-68
2021/07/07 04:28:10;;;;;;;;;;;;;;;17.09;100.00;98802.84;5026689;28;19921;-68
2021/07/07 04:30:36;;;;;;;;;;;;;;;17.16;100.00;98813.72;5026053;28;19921;-68
2021/07/07 04:33:01;;;;;;;;;;;;;;;17.23;100.00;98808.97;5008546;28;19928;-68
2021/07/07 04:35:27;;;;;;;;;;;;;;;16.96;100.00;98812.34;5008018;28;19931;-67
2021/07/07 04:37:52;;;;;;;;;;;;;;;17.07;100.00;98812.53;5026079;28;19913;-68
2021/07/07 04:40:21;;;;;;;;;;;;;;;17.20;100.00;98814.38;5008134;28;20271;-68
2021/07/07 04:42:47;;;;;;;;;;;;;;;17.07;100.00;98820.31;5008576;28;19917;-68
2021/07/07 04:45:13;;;;;;;;;;;;;;;17.07;100.00;98822.94;5006575;28;19913;-68
2021/07/07 04:47:38;;;;;;;;;;;;;;;16.96;100.00;98827.97;5026404;28;20282;-68
2021/07/07 04:50:04;;;;;;;;;;;;;;;17.00;100.00;98831.22;5006842;28;19999;-68
2021/07/07 04:52:30;;;;;;;;;;;;;;;17.18;100.00;98837.06;5025034;28;20007;-68
2021/07/07 04:54:55;;;;;;;;;;;;;;;17.13;100.00;98830.38;5025628;28;21092;-68
2021/07/07 04:57:20;;;;;;;;;;;;;;;17.14;100.00;98832.03;5007882;28;20597;-67
2021/07/07 04:59:46;;;;;;;;;;;;;;;17.00;100.00;98837.25;5024014;28;19921;-68
2021/07/07 05:02:11;;;;;;;;;;;;;;;17.20;100.00;98840.41;5007607;28;19913;-68
2021/07/07 05:04:37;;;;;;;;;;;;;;;17.36;100.00;98846.31;5007868;28;19913;-68
2021/07/07 05:07:02;;;;;;;;;;;;;;;17.38;100.00;98849.69;5007025;28;20950;-68
2021/07/07 05:09:28;;;;;;;;;;;;;;;17.28;100.00;98843.34;5008184;28;20347;-68
2021/07/07 05:11:53;;;;;;;;;;;;;;;17.25;100.00;98844.38;5026510;28;20054;-68
2021/07/07 05:14:19;;;;;;;;;;;;;;;16.94;100.00;98850.63;5025644;28;19978;-68
2021/07/07 05:16:45;;;;;;;;;;;;;;;17.33;100.00;98847.34;5007825;28;19960;-68
2021/07/07 05:19:10;;;;;;;;;;;;;;;17.24;100.00;98845.31;5007508;28;19971;-68
2021/07/07 05:21:37;;;;;;;;;;;;;;;17.04;100.00;98851.75;5025562;28;20374;-68
2021/07/07 05:24:03;;;;;;;;;;;;;;;17.31;100.00;98849.22;5025613;28;20275;-68
2021/07/07 05:26:28;;;;;;;;;;;;;;;17.31;100.00;98853.56;5008226;28;19928;-68
2021/07/07 05:28:53;;;;;;;;;;;;;;;17.63;100.00;98850.72;5025109;28;19928;-68
2021/07/07 05:31:19;;;;;;;;;;;;;;;17.54;100.00;98845.16;5025675;28;19979;-68
2021/07/07 05:33:44;;;;;;;;;;;;;;;18.14;100.00;98850.94;5025044;28;19974;-66
2021/07/07 05:36:10;;;;;;;;;;;;;;;17.96;100.00;98850.38;5025266;28;19913;-68
2021/07/07 05:38:36;;;;;;;;;;;;;;;18.06;100.00;98856.63;5024630;28;19914;-68
2021/07/07 05:41:01;;;;;;;;;;;;;;;17.99;100.00;98855.38;5006422;28;20393;-68
2021/07/07 05:43:27;;;;;;;;;;;;;;;18.29;100.00;98851.69;5006756;28;19928;-68
2021/07/07 05:45:52;;;;;;;;;;;;;;;18.25;100.00;98851.06;5007450;28;19917;-68
2021/07/07 05:48:18;;;;;;;;;;;;;;;18.54;100.00;98851.75;5024909;28;20290;-68
2021/07/07 05:50:43;;;;;;;;;;;;;;;19.12;100.00;98856.56;5024269;28;19917;-68
2021/07/07 05:53:09;;;;;;;;;;;;;;;19.17;100.00;98850.06;5022464;28;20375;-67
2021/07/07 05:55:34;;;;;;;;;;;;;;;19.06;100.00;98851.75;5006186;28;19975;-68
2021/07/07 05:58:00;;;;;;;;;;;;;;;19.14;100.00;98858.13;5005687;28;19940;-68
2021/07/07 06:00:25;;;;;;;;;;;;;;;19.22;100.00;98861.00;5024321;28;20002;-68
2021/07/07 06:02:54;;;;;;;;;;;;;;;19.63;100.00;98867.69;5023577;28;20363;-68
2021/07/07 06:05:20;;;;;;;;;;;;;;;19.81;100.00;98864.75;5008314;28;20165;-68
2021/07/07 06:07:46;;;;;;;;;;;;;;;19.88;100.00;98871.19;5024010;28;19921;-68
2021/07/07 06:10:13;;;;;;;;;;;;;;;19.74;100.00;98869.59;5007293;28;19949;-68
2021/07/07 06:12:38;;;;;;;;;;;;;;;20.43;100.00;98868.91;5024332;28;20317;-68
2021/07/07 06:15:05;;;;;;;;;;;;;;;20.38;100.00;98871.88;5007070;28;19924;-68
2021/07/07 06:17:30;;;;;;;;;;;;;;;20.38;100.00;98879.72;5006497;28;20022;-68
2021/07/07 06:19:56;;;;;;;;;;;;;;;20.62;100.00;98877.09;5025206;28;20736;-68
2021/07/07 06:22:21;;;;;;;;;;;;;;;20.65;98.94;98881.25;5025106;28;19916;-68
2021/07/07 06:24:46;;;;;;;;;;;;;;;20.63;98.43;98877.91;5025669;28;19917;-68
2021/07/07 06:27:12;;;;;;;;;;;;;;;21.17;94.67;98874.66;5021928;28;19921;-67
2021/07/07 06:29:37;;;;;;;;;;;;;;;21.25;94.53;98879.28;5024264;28;19917;-68
2021/07/07 06:32:03;;;;;;;;;;;;;;;21.38;93.80;98881.78;5023884;28;19921;-68
2021/07/07 06:34:28;;;;;;;;;;;;;;;22.12;91.72;98882.84;5006914;28;20052;-68
2021/07/07 06:36:53;;;;;;;;;;;;;;;21.69;90.43;98881.06;5024195;28;19928;-68
2021/07/07 06:39:19;;;;;;;;;;;;;;;22.36;86.80;98887.03;5023310;28;19917;-68
2021/07/07 06:41:44;;;;;;;;;;;;;;;22.52;86.09;98887.44;5023584;28;19971;-68
2021/07/07 06:44:10;;;;;;;;;;;;;;;21.83;89.51;98885.19;5005709;28;20000;-68
2021/07/07 06:46:36;;;;;;;;;;;;;;;21.83;89.73;98900.09;5024354;28;19917;-68
2021/07/07 06:49:01;;;;;;;;;;;;;;;21.79;89.58;98893.41;5005155;28;19950;-68
2021/07/07 06:51:27;;;;;;;;;;;;;;;22.13;88.42;98888.91;5005140;28;19917;-68
2021/07/07 06:53:53;;;;;;;;;;;;;;;22.21;89.05;98901.38;5004761;28;19978;-68
2021/07/07 06:56:18;;;;;;;;;;;;;;;21.83;88.32;98900.09;5005252;28;19992;-68
2021/07/07 06:58:43;;;;;;;;;;;;;;;21.95;89.17;98903.50;5022510;28;20023;-68
2021/07/07 07:01:09;;;;;;;;;;;;;;;22.34;87.41;98905.53;5022423;28;19913;-68
2021/07/07 07:03:34;;;;;;;;;;;;;;;22.35;86.54;98908.97;5005212;28;19918;-68
2021/07/07 07:05:59;;;;;;;;;;;;;;;22.38;88.30;98906.13;5023357;28;19913;-68
2021/07/07 07:08:25;;;;;;;;;;;;;;;22.36;89.82;98917.69;5026478;28;19925;-68
2021/07/07 07:10:50;;;;;;;;;;;;;;;21.86;90.42;98912.94;5028465;28;20358;-68
2021/07/07 07:13:16;;;;;;;;;;;;;;;21.83;91.60;98910.56;5028702;28;19917;-68
2021/07/07 07:15:42;;;;;;;;;;;;;;;22.14;89.88;98920.22;5028331;28;19927;-68
2021/07/07 07:18:07;;;;;;;;;;;;;;;22.03;90.00;98917.69;5011259;28;20541;-68
2021/07/07 07:20:33;;;;;;;;;;;;;;;22.02;90.06;98920.41;5028515;28;19921;-68
2021/07/07 07:22:59;;;;;;;;;;;;;;;22.37;87.34;98925.44;5010893;28;19922;-68
2021/07/07 07:25:24;;;;;;;;;;;;;;;22.13;89.85;98926.44;5026272;28;19921;-68
2021/07/07 07:27:50;;;;;;;;;;;;;;;22.40;89.60;98925.19;5026924;28;19921;-68
2021/07/07 07:30:15;;;;;;;;;;;;;;;22.10;89.98;98934.56;5027450;28;19917;-68
2021/07/07 07:32:41;;;;;;;;;;;;;;;22.55;88.38;98934.41;5009871;28;19967;-68
2021/07/07 07:35:06;;;;;;;;;;;;;;;22.28;88.18;98928.81;5010048;28;20378;-68
2021/07/07 07:37:41;;;;;;;;;;;;;;;22.55;89.29;98930.97;5009829;28;20348;-68
2021/07/07 07:40:10;;;;;;;;;;;;;;;22.74;87.29;98935.53;5027157;28;19920;-68
2021/07/07 07:42:36;;;;;;;;;;;;;;;23.28;85.05;98936.25;5009894;28;20428;-68
2021/07/07 07:45:01;;;;;;;;;;;;;;;23.47;83.53;98935.50;5009659;28;19913;-68
2021/07/07 07:47:26;;;;;;;;;;;;;;;23.62;85.66;98928.09;5026632;28;19927;-68
2021/07/07 07:49:52;;;;;;;;;;;;;;;23.59;80.29;98934.44;5027673;28;19924;-68
2021/07/07 07:52:18;;;;;;;;;;;;;;;23.69;80.72;98931.84;5026771;28;20047;-68
2021/07/07 07:54:44;;;;;;;;;;;;;;;23.56;82.42;98932.06;5010301;28;19995;-68
2021/07/07 07:57:09;;;;;;;;;;;;;;;23.97;82.77;98931.13;5008968;28;19944;-68
2021/07/07 07:59:34;;;;;;;;;;;;;;;23.96;77.76;98931.25;5026350;28;20448;-69
2021/07/07 08:02:00;;;;;;;;;;;;;;;23.68;78.77;98938.06;5025811;28;19913;-68
2021/07/07 08:04:25;;;;;;;;;;;;;;;24.28;76.76;98931.00;5026547;28;19971;-68
2021/07/07 08:06:51;;;;;;;;;;;;;;;25.20;74.34;98933.16;5022956;28;19917;-68
2021/07/07 08:09:16;;;;;;;;;;;;;;;24.46;74.54;98928.50;5006892;28;20244;-68
2021/07/07 08:11:43;;;;;;;;;;;;;;;24.87;74.55;98936.25;5024266;28;20015;-69
2021/07/07 08:14:08;;;;;;;;;;;;;;;25.17;76.51;98938.66;5025595;28;19924;-68
2021/07/07 08:16:34;;;;;;;;;;;;;;;24.43;74.72;98936.69;5006798;28;20342;-68
2021/07/07 08:18:59;;;;;;;;;;;;;;;24.19;75.08;98939.72;5025134;28;19925;-69
2021/07/07 08:21:24;;;;;;;;;;;;;;;24.22;77.39;98942.06;5009079;28;20007;-68
2021/07/07 08:23:50;;;;;;;;;;;;;;;24.77;75.14;98946.78;5026938;28;19972;-69
2021/07/07 08:26:15;;;;;;;;;;;;;;;24.34;81.03;98945.41;5026248;28;21228;-68
2021/07/07 08:28:41;;;;;;;;;;;;;;;24.06;75.52;98953.13;5026701;28;20436;-69
2021/07/07 08:31:06;;;;;;;;;;;;;;;24.04;74.98;98951.59;5025546;28;19956;-68
2021/07/07 08:33:32;;;;;;;;;;;;;;;24.05;75.08;98950.66;5009098;28;20448;-68
2021/07/07 08:35:57;;;;;;;;;;;;;;;24.10;78.75;98964.22;5025531;28;20410;-68
2021/07/07 08:38:22;;;;;;;;;;;;;;;24.26;74.92;98964.50;5008503;28;19975;-69
2021/07/07 08:40:48;;;;;;;;;;;;;;;24.55;78.01;98967.19;5024564;28;20296;-69
2021/07/07 08:43:13;;;;;;;;;;;;;;;24.40;74.84;98973.78;5008403;28;20283;-68
2021/07/07 08:45:39;;;;;;;;;;;;;;;24.19;77.84;98971.28;5025614;28;20373;-68
2021/07/07 08:48:04;;;;;;;;;;;;;;;24.98;74.26;98970.34;5024860;28;19917;-68
2021/07/07 08:50:31;;;;;;;;;;;;;;;25.08;71.00;98970.31;5024028;28;19917;-69
2021/07/07 08:52:59;;;;;;;;;;;;;;;26.42;69.17;98972.47;5007974;28;19917;-68
2021/07/07 08:55:25;;;;;;;;;;;;;;;27.63;61.21;98975.31;5008106;28;20290;-69
2021/07/07 08:57:51;;;;;;;;;;;;;;;26.12;59.33;98976.31;5008157;28;19924;-68
2021/07/07 09:00:21;;;;;;;;;;;;;;;27.12;61.67;98969.06;5025424;28;19917;-68
2021/07/07 09:02:48;;;;;;;;;;;;;;;27.95;58.27;98968.50;5025441;28;20338;-68
2021/07/07 09:05:13;;;;;;;;;;;;;;;25.46;65.71;98978.13;5026083;28;20005;-69
2021/07/07 09:07:40;;;;;;;;;;;;;;;25.64;65.94;98974.72;5025236;28;20015;-69
2021/07/07 09:10:05;;;;;;;;;;;;;;;26.36;66.05;98972.22;5025861;28;19917;-68
2021/07/07 09:12:30;;;;;;;;;;;;;;;25.68;65.69;98978.72;5025051;28;19960;-69
2021/07/07 09:15:00;;;;;;;;;;;;;;;26.11;64.15;98987.00;5007539;28;20012;-69
2021/07/07 09:17:26;;;;;;;;;;;;;;;26.68;67.59;98985.75;5024721;28;19920;-68
2021/07/07 09:19:51;;;;;;;;;;;;;;;26.50;63.96;98984.91;5025974;28;19921;-68
2021/07/07 09:22:22;;;;;;;;;;;;;;;27.49;64.02;98986.50;5025361;28;19955;-68
2021/07/07 09:24:48;;;;;;;;;;;;;;;27.31;62.11;98984.75;5008073;28;19975;-69
2021/07/07 09:27:17;;;;;;;;;;;;;;;27.20;54.70;98990.28;5024964;28;20016;-68
2021/07/07 09:29:52;;;;;;;;;;;;;;;27.34;57.78;98994.16;5025051;28;19916;-69
2021/07/07 09:32:17;;;;;;;;;;;;;;;28.27;51.95;98991.56;5024950;28;20571;-69
2021/07/07 09:34:44;;;;;;;;;;;;;;;28.16;54.68;98991.88;5025110;28;19917;-69
2021/07/07 09:37:10;;;;;;;;;;;;;;;27.77;52.54;98989.75;5025469;28;19967;-68
2021/07/07 09:39:36;;;;;;;;;;;;;;;28.01;54.35;98990.84;5006792;28;19921;-67
2021/07/07 09:42:01;;;;;;;;;;;;;;;27.41;56.66;98983.78;5025226;28;19917;-67
2021/07/07 09:44:33;;;;;;;;;;;;;;;28.61;50.91;98977.41;5024752;28;19917;-67
2021/07/07 09:46:59;;;;;;;;;;;;;;;28.67;50.32;98987.34;5007770;28;19922;-68
2021/07/07 09:49:25;;;;;;;;;;;;;;;28.71;45.91;98983.34;5025263;28;20294;-68
2021/07/07 09:51:51;;;;;;;;;;;;;;;28.72;43.87;98995.63;5005586;28;19925;-68
2021/07/07 09:54:16;;;;;;;;;;;;;;;28.88;47.30;98988.69;5025093;28;20008;-68
2021/07/07 09:56:42;;;;;;;;;;;;;;;29.29;41.86;98986.00;5007186;28;19913;-68
2021/07/07 09:59:07;;;;;;;;;;;;;;;29.52;49.28;98984.25;5022690;28;19936;-68
2021/07/07 10:01:32;;;;;;;;;;;;;;;30.25;40.70;98987.56;5025019;28;20346;-68
2021/07/07 10:03:58;;;;;;;;;;;;;;;30.22;41.46;98993.22;5006361;28;19917;-68
2021/07/07 10:06:25;;;;;;;;;;;;;;;29.73;44.27;98993.50;5007122;28;19976;-68
2021/07/07 10:08:50;;;;;;;;;;;;;;;28.14;43.44;98991.22;5005197;28;20084;-68
2021/07/07 10:11:15;;;;;;;;;;;;;;;27.05;46.61;98991.81;5024668;28;19917;-68
2021/07/07 10:13:42;;;;;;;;;;;;;;;28.44;45.63;98989.81;5005533;28;19913;-68
2021/07/07 10:16:08;;;;;;;;;;;;;;;29.25;46.56;98985.50;5007310;28;19917;-68
2021/07/07 10:18:34;;;;;;;;;;;;;;;28.44;39.87;98992.44;5006359;28;20611;-68
2021/07/07 10:20:59;;;;;;;;;;;;;;;28.93;43.58;98997.78;5024744;28;19928;-68
2021/07/07 10:23:25;;;;;;;;;;;;;;;28.77;41.20;98997.78;5023597;28;19951;-68
2021/07/07 10:25:51;;;;;;;;;;;;;;;29.24;41.66;98998.91;5007260;28;19913;-68
2021/07/07 10:28:17;;;;;;;;;;;;;;;27.62;46.86;98999.28;5005811;28;19920;-68
2021/07/07 10:30:50;;;;;;;;;;;;;;;28.99;44.26;98996.28;5006709;28;19917;-68
2021/07/07 10:33:16;;;;;;;;;;;;;;;28.83;43.46;99001.56;5024347;28;19968;-68
2021/07/07 10:35:42;;;;;;;;;;;;;;;29.66;56.49;99008.44;5004815;28;20614;-68
2021/07/07 10:38:12;;;;;;;;;;;;;;;29.56;47.28;99009.47;5021949;28;20311;-68
2021/07/07 10:40:51;;;;;;;;;;;;;;;29.76;43.20;98993.97;5022147;28;20067;-68
2021/07/07 10:43:24;;;;;;;;;;;;;;;28.36;44.04;99001.19;5007925;28;19920;-68
2021/07/07 10:45:50;;;;;;;;;;;;;;;28.24;40.50;99004.34;5006109;28;19917;-68
2021/07/07 10:48:27;;;;;;;;;;;;;;;27.33;44.33;99013.69;5023149;28;19921;-68
2021/07/07 10:50:53;;;;;;;;;;;;;;;27.31;41.08;99007.72;5002805;28;19925;-68
2021/07/07 10:53:22;;;;;;;;;;;;;;;26.18;45.61;99017.09;5005602;28;19975;-68
2021/07/07 10:55:47;;;;;;;;;;;;;;;25.44;47.65;99017.00;5022334;28;20012;-68
2021/07/07 10:58:22;;;;;;;;;;;;;;;26.64;45.19;99012.63;5022966;28;22071;-68
2021/07/07 11:00:48;;;;;;;;;;;;;;;26.50;48.37;99020.09;5006177;28;19967;-68
2021/07/07 11:03:33;;;;;;;;;;;;;;;27.09;43.98;99023.06;5023479;28;20363;-68
2021/07/07 11:06:19;;;;;;;;;;;;;;;27.48;44.45;99025.34;5022995;28;19921;-68
2021/07/07 11:08:44;;;;;;;;;;;;;;;28.50;41.86;99022.78;5008254;28;19964;-68
2021/07/07 11:11:11;;;;;;;;;;;;;;;28.81;43.92;99020.31;5023096;28;19924;-68
2021/07/07 11:13:43;;;;;;;;;;;;;;;28.05;47.27;99019.47;5004289;28;19917;-68
2021/07/07 11:16:09;;;;;;;;;;;;;;;28.98;47.63;99013.19;5021893;28;19921;-68
2021/07/07 11:18:36;;;;;;;;;;;;;;;30.47;43.35;99019.66;5003553;28;19936;-68
2021/07/07 11:21:02;;;;;;;;;;;;;;;29.78;39.48;99013.19;5004500;28;19940;-68
2021/07/07 11:23:28;;;;;;;;;;;;;;;30.89;44.00;99010.41;5023454;28;19917;-68
2021/07/07 11:25:53;;;;;;;;;;;;;;;30.98;41.09;99004.03;5005176;28;20374;-68
2021/07/07 11:28:20;;;;;;;;;;;;;;;31.18;37.37;99010.47;5021866;28;19968;-68
2021/07/07 11:30:46;;;;;;;;;;;;;;;31.51;38.75;98999.50;5021473;28;19918;-68
2021/07/07 11:33:11;;;;;;;;;;;;;;;30.16;38.26;99009.88;5021027;28;19928;-68
2021/07/07 11:35:38;;;;;;;;;;;;;;;29.14;43.26;99005.22;5021788;28;19928;-66
2021/07/07 11:38:05;;;;;;;;;;;;;;;29.79;38.82;99017.53;5003583;28;20024;-68
2021/07/07 11:40:31;;;;;;;;;;;;;;;28.93;39.09;99021.63;5002892;28;20056;-68
2021/07/07 11:42:57;;;;;;;;;;;;;;;29.75;45.20;99023.34;5020805;28;20422;-68
2021/07/07 11:45:32;;;;;;;;;;;;;;;29.88;41.33;99018.31;5022165;28;19921;-67
2021/07/07 11:48:06;;;;;;;;;;;;;;;30.76;44.20;99026.94;4988200;28;20357;-68
2021/07/07 11:50:32;;;;;;;;;;;;;;;29.88;44.17;99018.31;5020843;28;20298;-68
2021/07/07 11:52:59;;;;;;;;;;;;;;;29.18;40.98;99025.13;5019581;28;19917;-68
2021/07/07 11:55:43;;;;;;;;;;;;;;;29.96;38.59;99020.94;4989528;28;19960;-68
2021/07/07 11:58:09;;;;;;;;;;;;;;;31.09;37.19;99022.22;5023937;28;19917;-66
2021/07/07 12:00:38;;;;;;;;;;;;;;;31.72;37.26;99021.88;5024564;28;19936;-66
2021/07/07 12:03:04;;;;;;;;;;;;;;;31.37;36.36;99022.41;5007914;28;20001;-68
2021/07/07 12:05:30;;;;;;;;;;;;;;;32.20;37.54;99024.97;5026239;28;20011;-68
2021/07/07 12:08:14;;;;;;;;;;;;;;;31.97;36.34;99025.09;5026011;28;19947;-68
2021/07/07 12:10:40;;;;;;;;;;;;;;;32.14;34.24;99020.38;5008970;28;19921;-68
2021/07/07 12:13:21;;;;;;;;;;;;;;;31.60;34.03;99018.88;5026130;28;19917;-68
2021/07/07 12:15:47;;;;;;;;;;;;;;;33.14;37.36;99011.50;5025757;28;19917;-68
2021/07/07 12:18:22;;;;;;;;;;;;;;;33.11;33.66;99011.91;5024481;28;19921;-68
2021/07/07 12:20:48;;;;;;;;;;;;;;;31.46;36.54;99010.69;4992458;28;19957;-68
2021/07/07 12:23:13;;;;;;;;;;;;;;;32.31;36.22;99016.47;5008241;28;19960;-67
2021/07/07 12:25:39;;;;;;;;;;;;;;;32.04;33.68;99021.50;5026507;28;19917;-67
2021/07/07 12:28:04;;;;;;;;;;;;;;;32.25;29.97;99019.88;5008457;28;20027;-69
2021/07/07 12:30:30;;;;;;;;;;;;;;;31.52;36.72;99017.16;5026579;28;20295;-68
2021/07/07 12:32:55;;;;;;;;;;;;;;;31.14;34.39;99019.81;5007524;28;19925;-68
2021/07/07 12:35:23;;;;;;;;;;;;;;;33.13;37.04;99020.53;5007929;28;21024;-68
2021/07/07 12:37:48;;;;;;;;;;;;;;;33.49;34.63;99022.22;5008808;28;19921;-69
2021/07/07 12:40:21;;;;;;;;;;;;;;;32.60;33.46;99028.09;5025317;28;20563;-69